createdAt,value
2017-10-04T00:00:26.290Z,13.74
2017-10-04T00:01:26.332Z,13.71
2017-10-04T00:02:26.890Z,13.67
2017-10-04T00:03:26.839Z,13.85
2017-10-04T00:04:26.582Z,13.67
2017-10-04T00:05:26.508Z,13.78
2017-10-04T00:06:26.794Z,13.7
2017-10-04T00:07:26.167Z,13.67
2017-10-04T00:08:26.551Z,13.8
2017-10-04T00:09:26.431Z,13.85
2017-10-04T00:10:26.740Z,13.75
2017-10-04T00:11:26.395Z,13.65
2017-10-04T00:12:26.680Z,13.55
2017-10-04T00:13:26.363Z,13.56
2017-10-04T00:14:26.650Z,13.65
2017-10-04T00:15:26.619Z,13.67
2017-10-04T00:16:26.293Z,13.72
2017-10-04T00:17:26.586Z,13.7
2017-10-04T00:18:26.573Z,13.77
2017-10-04T00:19:26.552Z,13.88
2017-10-04T00:20:26.520Z,13.81
2017-10-04T00:21:26.223Z,13.88
2017-10-04T00:22:26.492Z,13.82
2017-10-04T00:23:26.465Z,13.84
2017-10-04T00:24:25.840Z,13.9
2017-10-04T00:25:25.811Z,13.78
2017-10-04T00:26:26.411Z,13.7
2017-10-04T00:27:26.392Z,13.82
2017-10-04T00:28:26.383Z,13.88
2017-10-04T00:29:26.063Z,13.81
2017-10-04T00:30:26.342Z,13.75
2017-10-04T00:31:26.324Z,13.77
2017-10-04T00:32:26.314Z,13.82
2017-10-04T00:33:26.294Z,13.8
2017-10-04T00:34:26.296Z,13.74
2017-10-04T00:35:26.252Z,13.72
2017-10-04T00:36:26.223Z,13.75
2017-10-04T00:37:25.901Z,13.75
2017-10-04T00:38:25.861Z,13.55
2017-10-04T00:39:25.550Z,13.62
2017-10-04T00:40:25.850Z,13.78
2017-10-04T00:41:25.810Z,13.62
2017-10-04T00:42:26.098Z,13.48
2017-10-04T00:43:26.081Z,13.56
2017-10-04T00:44:25.760Z,13.6
2017-10-04T00:45:25.736Z,13.6
2017-10-04T00:46:25.709Z,13.77
2017-10-04T00:47:26.041Z,13.65
2017-10-04T00:48:25.978Z,13.56
2017-10-04T00:49:25.971Z,13.56
2017-10-04T00:50:25.639Z,13.65
2017-10-04T00:51:25.930Z,13.72
2017-10-04T00:52:25.612Z,13.84
2017-10-04T00:53:25.587Z,13.84
2017-10-04T00:54:25.870Z,13.85
2017-10-04T00:55:25.851Z,13.8
2017-10-04T00:56:25.835Z,13.63
2017-10-04T00:57:25.821Z,13.72
2017-10-04T00:58:25.803Z,13.65
2017-10-04T00:59:25.533Z,13.67
2017-10-04T01:00:25.460Z,13.82
2017-10-04T01:01:25.184Z,13.81
2017-10-04T01:02:25.719Z,13.82
2017-10-04T01:03:25.701Z,13.85
2017-10-04T01:04:25.691Z,13.72
2017-10-04T01:05:25.347Z,13.74
2017-10-04T01:06:25.326Z,13.81
2017-10-04T01:07:25.310Z,13.81
2017-10-04T01:08:25.600Z,13.65
2017-10-04T01:09:25.591Z,13.82
2017-10-04T01:10:25.561Z,13.81
2017-10-04T01:11:25.309Z,13.95
2017-10-04T01:12:25.529Z,13.88
2017-10-04T01:13:25.519Z,13.85
2017-10-04T01:14:25.476Z,13.81
2017-10-04T01:15:25.469Z,13.72
2017-10-04T01:16:25.441Z,13.74
2017-10-04T01:17:25.420Z,13.71
2017-10-04T01:18:25.100Z,13.66
2017-10-04T01:19:25.102Z,13.62
2017-10-04T01:20:25.147Z,13.66
2017-10-04T01:21:25.362Z,13.71
2017-10-04T01:22:25.026Z,13.72
2017-10-04T01:23:25.320Z,13.72
2017-10-04T01:24:25.289Z,13.67
2017-10-04T01:25:25.269Z,13.77
2017-10-04T01:26:24.964Z,13.75
2017-10-04T01:27:25.243Z,13.81
2017-10-04T01:28:24.915Z,13.84
2017-10-04T01:29:25.191Z,13.81
2017-10-04T01:30:25.191Z,13.77
2017-10-04T01:31:25.172Z,13.74
2017-10-04T01:32:24.841Z,13.65
2017-10-04T01:33:24.891Z,13.77
2017-10-04T01:34:25.100Z,13.74
2017-10-04T01:35:24.769Z,13.65
2017-10-04T01:36:25.081Z,13.56
2017-10-04T01:37:25.053Z,13.52
2017-10-04T01:38:24.740Z,13.67
2017-10-04T01:39:25.002Z,13.71
2017-10-04T01:40:24.673Z,13.75
2017-10-04T01:41:25.001Z,13.78
2017-10-04T01:42:24.342Z,13.81
2017-10-04T01:43:24.951Z,13.66
2017-10-04T01:44:24.290Z,13.66
2017-10-04T01:45:24.894Z,13.67
2017-10-04T01:46:24.876Z,13.6
2017-10-04T01:47:24.234Z,13.56
2017-10-04T01:48:24.567Z,13.48
2017-10-04T01:49:24.513Z,13.47
2017-10-04T01:50:24.791Z,13.56
2017-10-04T01:51:24.470Z,13.63
2017-10-04T01:52:24.761Z,13.55
2017-10-04T01:53:24.429Z,13.66
2017-10-04T01:54:24.711Z,13.74
2017-10-04T01:55:24.089Z,13.63
2017-10-04T01:56:24.687Z,13.74
2017-10-04T01:57:24.041Z,13.63
2017-10-04T01:58:24.641Z,13.75
2017-10-04T01:59:24.305Z,13.8
2017-10-04T02:00:24.610Z,13.82
2017-10-04T02:01:24.292Z,13.77
2017-10-04T02:02:24.280Z,13.78
2017-10-04T02:03:23.929Z,13.78
2017-10-04T02:04:24.530Z,13.75
2017-10-04T02:05:24.201Z,13.63
2017-10-04T02:06:24.178Z,13.7
2017-10-04T02:07:24.474Z,13.72
2017-10-04T02:08:23.826Z,13.72
2017-10-04T02:09:24.433Z,13.78
2017-10-04T02:10:24.117Z,13.59
2017-10-04T02:11:24.091Z,13.56
2017-10-04T02:12:24.069Z,13.47
2017-10-04T02:13:24.370Z,13.55
2017-10-04T02:14:24.032Z,13.45
2017-10-04T02:15:24.011Z,13.31
2017-10-04T02:16:23.989Z,13.42
2017-10-04T02:17:23.976Z,13.53
2017-10-04T02:18:23.953Z,13.59
2017-10-04T02:19:24.242Z,13.66
2017-10-04T02:20:23.602Z,13.52
2017-10-04T02:21:23.889Z,13.62
2017-10-04T02:22:23.864Z,13.71
2017-10-04T02:23:24.160Z,13.55
2017-10-04T02:24:24.163Z,13.59
2017-10-04T02:25:24.121Z,13.62
2017-10-04T02:26:24.122Z,13.55
2017-10-04T02:27:24.088Z,13.66
2017-10-04T02:28:23.441Z,13.7
2017-10-04T02:29:23.737Z,13.74
2017-10-04T02:30:23.720Z,13.65
2017-10-04T02:31:23.721Z,13.63
2017-10-04T02:32:23.997Z,13.66
2017-10-04T02:33:23.982Z,13.59
2017-10-04T02:34:23.951Z,13.48
2017-10-04T02:35:23.619Z,13.55
2017-10-04T02:36:23.921Z,13.6
2017-10-04T02:37:23.598Z,13.62
2017-10-04T02:38:23.571Z,13.63
2017-10-04T02:39:23.855Z,13.6
2017-10-04T02:40:23.522Z,13.63
2017-10-04T02:41:23.813Z,13.59
2017-10-04T02:42:23.791Z,13.57
2017-10-04T02:43:23.455Z,13.63
2017-10-04T02:44:23.761Z,13.63
2017-10-04T02:45:23.735Z,13.57
2017-10-04T02:46:23.723Z,13.56
2017-10-04T02:47:23.415Z,13.6
2017-10-04T02:48:23.369Z,13.65
2017-10-04T02:49:23.651Z,13.65
2017-10-04T02:50:23.331Z,13.53
2017-10-04T02:51:23.020Z,13.56
2017-10-04T02:52:23.299Z,13.56
2017-10-04T02:53:23.340Z,13.45
2017-10-04T02:54:23.564Z,13.45
2017-10-04T02:55:23.022Z,13.44
2017-10-04T02:56:22.901Z,13.35
2017-10-04T02:57:23.512Z,13.4
2017-10-04T02:58:23.490Z,13.47
2017-10-04T02:59:23.211Z,13.52
2017-10-04T03:00:23.443Z,13.63
2017-10-04T03:01:23.432Z,13.63
2017-10-04T03:02:23.405Z,13.66
2017-10-04T03:03:23.392Z,13.75
2017-10-04T03:04:23.361Z,13.6
2017-10-04T03:05:23.350Z,13.71
2017-10-04T03:06:23.020Z,13.77
2017-10-04T03:07:23.010Z,13.75
2017-10-04T03:08:23.294Z,13.8
2017-10-04T03:09:23.304Z,13.71
2017-10-04T03:10:22.956Z,13.77
2017-10-04T03:11:22.941Z,13.74
2017-10-04T03:12:22.904Z,13.75
2017-10-04T03:13:22.877Z,13.8
2017-10-04T03:14:22.949Z,13.75
2017-10-04T03:15:23.180Z,13.7
2017-10-04T03:16:23.140Z,13.8
2017-10-04T03:17:22.495Z,13.75
2017-10-04T03:18:22.802Z,13.63
2017-10-04T03:19:23.080Z,13.66
2017-10-04T03:20:22.832Z,13.65
2017-10-04T03:21:22.762Z,13.53
2017-10-04T03:22:22.711Z,13.53
2017-10-04T03:23:22.708Z,13.67
2017-10-04T03:24:22.979Z,13.49
2017-10-04T03:25:22.340Z,13.48
2017-10-04T03:26:22.941Z,13.31
2017-10-04T03:27:22.927Z,13.48
2017-10-04T03:28:22.604Z,13.33
2017-10-04T03:29:22.884Z,13.48
2017-10-04T03:30:22.871Z,13.53
2017-10-04T03:31:22.539Z,13.48
2017-10-04T03:32:22.829Z,13.29
2017-10-04T03:33:22.500Z,13.28
2017-10-04T03:34:22.820Z,13.41
2017-10-04T03:35:22.149Z,13.47
2017-10-04T03:36:22.771Z,13.41
2017-10-04T03:37:22.430Z,13.44
2017-10-04T03:38:22.721Z,13.48
2017-10-04T03:39:22.701Z,13.4
2017-10-04T03:40:22.699Z,13.35
2017-10-04T03:41:22.660Z,13.18
2017-10-04T03:42:22.633Z,13.29
2017-10-04T03:43:22.331Z,13.33
2017-10-04T03:44:22.290Z,13.4
2017-10-04T03:45:22.271Z,13.41
2017-10-04T03:46:22.590Z,13.31
2017-10-04T03:47:22.228Z,13.44
2017-10-04T03:48:22.529Z,13.6
2017-10-04T03:49:22.500Z,13.52
2017-10-04T03:50:22.483Z,13.47
2017-10-04T03:51:21.840Z,13.4
2017-10-04T03:52:22.151Z,13.23
2017-10-04T03:53:22.121Z,13.29
2017-10-04T03:54:21.781Z,13.31
2017-10-04T03:55:22.081Z,13.45
2017-10-04T03:56:22.060Z,13.42
2017-10-04T03:57:21.734Z,13.56
2017-10-04T03:58:21.708Z,13.4
2017-10-04T03:59:21.688Z,13.21
2017-10-04T04:00:21.672Z,13.19
2017-10-04T04:01:21.960Z,13.37
2017-10-04T04:02:21.941Z,13.35
2017-10-04T04:03:21.920Z,13.4
2017-10-04T04:04:22.213Z,13.37
2017-10-04T04:05:22.266Z,13.42
2017-10-04T04:06:21.861Z,13.25
2017-10-04T04:07:22.165Z,13.18
2017-10-04T04:08:22.119Z,13.28
2017-10-04T04:09:21.899Z,13.42
2017-10-04T04:10:21.791Z,13.48
2017-10-04T04:11:21.773Z,13.45
2017-10-04T04:12:21.752Z,13.42
2017-10-04T04:13:21.734Z,13.37
2017-10-04T04:14:21.700Z,13.41
2017-10-04T04:15:21.691Z,13.48
2017-10-04T04:16:21.662Z,13.53
2017-10-04T04:17:21.647Z,13.41
2017-10-04T04:18:21.939Z,13.33
2017-10-04T04:19:21.910Z,13.35
2017-10-04T04:20:21.909Z,13.31
2017-10-04T04:21:21.883Z,13.16
2017-10-04T04:22:21.862Z,13.1
2017-10-04T04:23:21.541Z,13.04
2017-10-04T04:24:21.818Z,13.14
2017-10-04T04:25:21.494Z,13.08
2017-10-04T04:26:21.791Z,13.21
2017-10-04T04:27:21.760Z,13.18
2017-10-04T04:28:21.740Z,13.19
2017-10-04T04:29:21.419Z,13.19
2017-10-04T04:30:21.710Z,13.31
2017-10-04T04:31:21.682Z,13.37
2017-10-04T04:32:21.040Z,13.41
2017-10-04T04:33:21.694Z,13.21
2017-10-04T04:34:21.660Z,13.23
2017-10-04T04:35:21.292Z,13.29
2017-10-04T04:36:21.601Z,13.41
2017-10-04T04:37:21.578Z,13.48
2017-10-04T04:38:21.550Z,13.45
2017-10-04T04:39:21.525Z,13.47
2017-10-04T04:40:21.528Z,13.49
2017-10-04T04:41:21.503Z,13.49
2017-10-04T04:42:21.474Z,13.41
2017-10-04T04:43:21.495Z,13.47
2017-10-04T04:44:21.131Z,13.28
2017-10-04T04:45:21.435Z,13.22
2017-10-04T04:46:21.081Z,13.23
2017-10-04T04:47:21.072Z,13.23
2017-10-04T04:48:21.062Z,13.33
2017-10-04T04:49:21.032Z,13.33
2017-10-04T04:50:21.308Z,13.35
2017-10-04T04:51:21.309Z,13.22
2017-10-04T04:52:21.300Z,13.28
2017-10-04T04:53:20.638Z,13.18
2017-10-04T04:54:21.240Z,13.22
2017-10-04T04:55:21.465Z,13.29
2017-10-04T04:56:21.202Z,13.4
2017-10-04T04:57:20.559Z,13.23
2017-10-04T04:58:21.160Z,13.35
2017-10-04T04:59:21.142Z,13.4
2017-10-04T05:00:21.120Z,13.38
2017-10-04T05:01:20.789Z,13.26
2017-10-04T05:02:21.072Z,13.35
2017-10-04T05:03:20.772Z,13.23
2017-10-04T05:04:21.050Z,13.28
2017-10-04T05:05:21.028Z,13.26
2017-10-04T05:06:20.397Z,13.16
2017-10-04T05:07:20.671Z,13.31
2017-10-04T05:08:20.979Z,13.28
2017-10-04T05:09:20.949Z,13.22
2017-10-04T05:10:20.925Z,13.14
2017-10-04T05:11:20.601Z,13.04
2017-10-04T05:12:20.878Z,12.97
2017-10-04T05:13:20.570Z,13.01
2017-10-04T05:14:20.528Z,13.04
2017-10-04T05:15:20.829Z,12.96
2017-10-04T05:16:20.804Z,12.94
2017-10-04T05:17:20.795Z,12.89
2017-10-04T05:18:20.769Z,12.98
2017-10-04T05:19:20.759Z,13.01
2017-10-04T05:20:20.738Z,13
2017-10-04T05:21:20.708Z,12.97
2017-10-04T05:22:20.380Z,13
2017-10-04T05:23:20.688Z,12.96
2017-10-04T05:24:20.641Z,12.97
2017-10-04T05:25:20.329Z,12.98
2017-10-04T05:26:20.630Z,13.04
2017-10-04T05:27:20.603Z,13.07
2017-10-04T05:28:20.694Z,13.19
2017-10-04T05:29:20.553Z,13.11
2017-10-04T05:30:19.928Z,13.11
2017-10-04T05:31:20.527Z,13.22
2017-10-04T05:32:20.189Z,13.22
2017-10-04T05:33:20.172Z,13.19
2017-10-04T05:34:20.148Z,13.18
2017-10-04T05:35:20.131Z,13.06
2017-10-04T05:36:20.445Z,13.03
2017-10-04T05:37:20.088Z,13.04
2017-10-04T05:38:19.761Z,13.14
2017-10-04T05:39:20.077Z,13.1
2017-10-04T05:40:20.339Z,13.07
2017-10-04T05:41:20.011Z,13.08
2017-10-04T05:42:20.298Z,13.16
2017-10-04T05:43:19.977Z,13.15
2017-10-04T05:44:20.280Z,13.21
2017-10-04T05:45:20.021Z,13.21
2017-10-04T05:46:20.211Z,13.21
2017-10-04T05:47:20.211Z,13.31
2017-10-04T05:48:19.881Z,13.33
2017-10-04T05:49:20.172Z,13.35
2017-10-04T05:50:19.520Z,13.28
2017-10-04T05:51:19.809Z,13.4
2017-10-04T05:52:19.477Z,13.15
2017-10-04T05:53:20.088Z,13.1
2017-10-04T05:54:20.087Z,13.19
2017-10-04T05:55:19.749Z,13.14
2017-10-04T05:56:19.720Z,13.14
2017-10-04T05:57:20.016Z,13.03
2017-10-04T05:58:19.679Z,13.04
2017-10-04T05:59:19.963Z,13.06
2017-10-04T06:00:19.643Z,13.08
2017-10-04T06:01:19.949Z,13
2017-10-04T06:02:19.599Z,13.11
2017-10-04T06:03:19.271Z,13.16
2017-10-04T06:04:19.561Z,13.18
2017-10-04T06:05:19.632Z,13.4
2017-10-04T06:06:19.894Z,13.35
2017-10-04T06:07:19.819Z,13.31
2017-10-04T06:08:19.899Z,13.19
2017-10-04T06:09:19.678Z,13.15
2017-10-04T06:10:19.759Z,13.14
2017-10-04T06:11:19.439Z,13.22
2017-10-04T06:12:19.408Z,13.18
2017-10-04T06:13:19.506Z,13.08
2017-10-04T06:14:19.688Z,13.18
2017-10-04T06:15:19.661Z,13.21
2017-10-04T06:16:19.645Z,13.23
2017-10-04T06:17:19.608Z,13.06
2017-10-04T06:18:19.586Z,13.07
2017-10-04T06:19:19.388Z,12.96
2017-10-04T06:20:19.577Z,13.15
2017-10-04T06:21:19.232Z,13.11
2017-10-04T06:22:19.228Z,12.96
2017-10-04T06:23:19.538Z,13.01
2017-10-04T06:24:18.856Z,13.07
2017-10-04T06:25:19.163Z,13.26
2017-10-04T06:26:19.448Z,13.25
2017-10-04T06:27:19.122Z,13.41
2017-10-04T06:28:19.107Z,13.41
2017-10-04T06:29:19.080Z,13.48
2017-10-04T06:30:19.380Z,13.71
2017-10-04T06:31:19.359Z,13.66
2017-10-04T06:32:19.359Z,13.84
2017-10-04T06:33:19.315Z,13.88
2017-10-04T06:34:18.979Z,13.9
2017-10-04T06:35:19.278Z,13.96
2017-10-04T06:36:18.645Z,14.07
2017-10-04T06:37:18.935Z,14.33
2017-10-04T06:38:19.209Z,14
2017-10-04T06:39:18.922Z,13.92
2017-10-04T06:40:18.901Z,14.15
2017-10-04T06:41:19.182Z,14.18
2017-10-04T06:42:19.167Z,14.18
2017-10-04T06:43:18.797Z,14.15
2017-10-04T06:44:19.118Z,14.21
2017-10-04T06:45:19.100Z,14.21
2017-10-04T06:46:19.076Z,14.38
2017-10-04T06:47:19.074Z,14.5
2017-10-04T06:48:19.052Z,14.38
2017-10-04T06:49:19.044Z,14.26
2017-10-04T06:50:18.997Z,14.14
2017-10-04T06:51:18.670Z,14.21
2017-10-04T06:52:18.956Z,14.14
2017-10-04T06:53:18.947Z,13.92
2017-10-04T06:54:18.928Z,14
2017-10-04T06:55:18.937Z,14.35
2017-10-04T06:56:18.576Z,14.46
2017-10-04T06:57:18.869Z,14.57
2017-10-04T06:58:18.899Z,14.57
2017-10-04T06:59:18.532Z,14.53
2017-10-04T07:00:18.189Z,14.5
2017-10-04T07:01:18.491Z,14.85
2017-10-04T07:02:18.788Z,14.82
2017-10-04T07:03:18.779Z,15.06
2017-10-04T07:04:18.744Z,15.21
2017-10-04T07:05:18.725Z,15.14
2017-10-04T07:06:18.390Z,15.13
2017-10-04T07:07:18.708Z,15
2017-10-04T07:08:18.670Z,14.55
2017-10-04T07:09:18.658Z,14.48
2017-10-04T07:10:18.639Z,14.4
2017-10-04T07:11:18.624Z,14.39
2017-10-04T07:12:18.288Z,14.14
2017-10-04T07:13:18.269Z,14.11
2017-10-04T07:14:18.268Z,14.13
2017-10-04T07:15:18.239Z,14.21
2017-10-04T07:16:18.530Z,14.14
2017-10-04T07:17:18.498Z,14.05
2017-10-04T07:18:18.188Z,13.92
2017-10-04T07:19:18.465Z,13.84
2017-10-04T07:20:18.458Z,13.99
2017-10-04T07:21:17.836Z,14.02
2017-10-04T07:22:18.419Z,14.05
2017-10-04T07:23:18.402Z,13.92
2017-10-04T07:24:18.394Z,14
2017-10-04T07:25:18.072Z,14
2017-10-04T07:26:17.728Z,14.11
2017-10-04T07:27:18.069Z,14.13
2017-10-04T07:28:17.998Z,13.96
2017-10-04T07:29:17.982Z,13.8
2017-10-04T07:30:17.969Z,13.89
2017-10-04T07:31:18.098Z,13.92
2017-10-04T07:32:18.239Z,13.95
2017-10-04T07:33:18.222Z,13.93
2017-10-04T07:34:17.889Z,13.99
2017-10-04T07:35:18.198Z,13.97
2017-10-04T07:36:17.911Z,14.02
2017-10-04T07:37:17.840Z,14.17
2017-10-04T07:38:18.133Z,14.13
2017-10-04T07:39:17.821Z,14.21
2017-10-04T07:40:18.089Z,14.13
2017-10-04T07:41:18.087Z,14.28
2017-10-04T07:42:17.795Z,14.11
2017-10-04T07:43:18.041Z,14.26
2017-10-04T07:44:17.398Z,14.26
2017-10-04T07:45:17.719Z,14.36
2017-10-04T07:46:17.993Z,14.29
2017-10-04T07:47:17.657Z,14.46
2017-10-04T07:48:17.959Z,14.42
2017-10-04T07:49:17.634Z,14.29
2017-10-04T07:50:17.687Z,14.29
2017-10-04T07:51:17.899Z,14.2
2017-10-04T07:52:17.867Z,14.14
2017-10-04T07:53:17.845Z,14.07
2017-10-04T07:54:17.838Z,14.03
2017-10-04T07:55:17.819Z,14.11
2017-10-04T07:56:17.821Z,14.14
2017-10-04T07:57:17.785Z,14.2
2017-10-04T07:58:17.753Z,14.17
2017-10-04T07:59:17.455Z,14.05
2017-10-04T08:00:17.719Z,13.96
2017-10-04T08:01:17.730Z,14.11
2017-10-04T08:02:17.399Z,14
2017-10-04T08:03:17.369Z,14.18
2017-10-04T08:04:17.357Z,14.11
2017-10-04T08:05:17.004Z,14.22
2017-10-04T08:06:17.609Z,14.26
2017-10-04T08:07:16.971Z,14.35
2017-10-04T08:08:17.581Z,14.3
2017-10-04T08:09:17.263Z,14.25
2017-10-04T08:10:17.549Z,14.21
2017-10-04T08:11:16.901Z,14.29
2017-10-04T08:12:17.203Z,14.25
2017-10-04T08:13:17.480Z,14.5
2017-10-04T08:14:17.149Z,14.29
2017-10-04T08:15:17.458Z,14.25
2017-10-04T08:16:17.439Z,14.35
2017-10-04T08:17:17.098Z,14.33
2017-10-04T08:18:17.111Z,14.05
2017-10-04T08:19:17.389Z,14.07
2017-10-04T08:20:17.045Z,14.15
2017-10-04T08:21:17.340Z,14.29
2017-10-04T08:22:17.340Z,14.26
2017-10-04T08:23:17.309Z,14.42
2017-10-04T08:24:17.270Z,14.57
2017-10-04T08:25:17.259Z,14.51
2017-10-04T08:26:17.251Z,14.47
2017-10-04T08:27:16.921Z,14.54
2017-10-04T08:28:16.886Z,14.47
2017-10-04T08:29:17.198Z,14.47
2017-10-04T08:30:17.148Z,14.4
2017-10-04T08:31:16.841Z,14.22
2017-10-04T08:32:17.131Z,14.38
2017-10-04T08:33:17.112Z,14.35
2017-10-04T08:34:16.773Z,14.26
2017-10-04T08:35:17.080Z,14.29
2017-10-04T08:36:16.753Z,14.42
2017-10-04T08:37:16.752Z,14.35
2017-10-04T08:38:16.712Z,14.44
2017-10-04T08:39:16.999Z,14.58
2017-10-04T08:40:16.999Z,14.36
2017-10-04T08:41:16.971Z,14.6
2017-10-04T08:42:16.949Z,14.69
2017-10-04T08:43:16.931Z,14.92
2017-10-04T08:44:16.927Z,15.07
2017-10-04T08:45:16.914Z,15.1
2017-10-04T08:46:16.873Z,15.2
2017-10-04T08:47:16.870Z,15.21
2017-10-04T08:48:16.841Z,15.4
2017-10-04T08:49:16.832Z,15.4
2017-10-04T08:50:16.809Z,15.46
2017-10-04T08:51:16.488Z,15.1
2017-10-04T08:52:16.160Z,15.21
2017-10-04T08:53:16.572Z,15.21
2017-10-04T08:54:16.779Z,15.4
2017-10-04T08:55:16.844Z,15.54
2017-10-04T08:56:16.714Z,15.35
2017-10-04T08:57:16.702Z,15.44
2017-10-04T08:58:16.662Z,15.49
2017-10-04T08:59:16.351Z,15.53
2017-10-04T09:00:16.333Z,15.46
2017-10-04T09:01:16.321Z,15.53
2017-10-04T09:02:16.292Z,15.71
2017-10-04T09:03:16.737Z,16
2017-10-04T09:04:16.254Z,16.05
2017-10-04T09:05:16.250Z,15.94
2017-10-04T09:06:16.542Z,16.01
2017-10-04T09:07:16.622Z,15.75
2017-10-04T09:08:16.511Z,15.9
2017-10-04T09:09:16.480Z,15.94
2017-10-04T09:10:16.153Z,15.85
2017-10-04T09:11:16.173Z,15.77
2017-10-04T09:12:16.459Z,15.77
2017-10-04T09:13:16.545Z,15.79
2017-10-04T09:14:16.411Z,15.9
2017-10-04T09:15:16.100Z,15.8
2017-10-04T09:16:16.378Z,15.83
2017-10-04T09:17:16.373Z,15.75
2017-10-04T09:18:16.404Z,15.64
2017-10-04T09:19:15.700Z,15.46
2017-10-04T09:20:16.320Z,15.29
2017-10-04T09:21:16.291Z,15.25
2017-10-04T09:22:15.949Z,15.14
2017-10-04T09:23:15.942Z,15.14
2017-10-04T09:24:16.238Z,15.16
2017-10-04T09:25:16.318Z,15.17
2017-10-04T09:26:15.874Z,15.1
2017-10-04T09:27:16.181Z,15.13
2017-10-04T09:28:15.860Z,15.1
2017-10-04T09:29:15.612Z,14.92
2017-10-04T09:30:16.224Z,14.95
2017-10-04T09:31:15.791Z,14.91
2017-10-04T09:32:16.131Z,14.89
2017-10-04T09:33:16.070Z,14.92
2017-10-04T09:34:16.052Z,15.07
2017-10-04T09:35:15.462Z,14.85
2017-10-04T09:36:15.731Z,14.98
2017-10-04T09:37:16.087Z,15.1
2017-10-04T09:38:16.051Z,15.12
2017-10-04T09:39:15.651Z,15.16
2017-10-04T09:40:15.312Z,15.2
2017-10-04T09:41:16.019Z,15.06
2017-10-04T09:42:15.970Z,15.1
2017-10-04T09:43:15.581Z,15.12
2017-10-04T09:44:15.571Z,15.09
2017-10-04T09:45:15.542Z,15.28
2017-10-04T09:46:15.920Z,15.27
2017-10-04T09:47:15.831Z,15.09
2017-10-04T09:48:15.491Z,15.12
2017-10-04T09:49:15.857Z,15.34
2017-10-04T09:50:15.807Z,15.43
2017-10-04T09:51:15.749Z,15.2
2017-10-04T09:52:15.740Z,15.21
2017-10-04T09:53:15.751Z,15.39
2017-10-04T09:54:15.481Z,15.44
2017-10-04T09:55:15.721Z,15.53
2017-10-04T09:56:15.361Z,15.62
2017-10-04T09:57:15.671Z,15.46
2017-10-04T09:58:15.618Z,15.42
2017-10-04T09:59:15.627Z,15.21
2017-10-04T10:00:15.599Z,15.07
2017-10-04T10:01:15.606Z,15.13
2017-10-04T10:02:15.235Z,15.14
2017-10-04T10:03:15.221Z,15.14
2017-10-04T10:04:15.512Z,15.2
2017-10-04T10:05:15.505Z,15.25
2017-10-04T10:06:15.484Z,15.24
2017-10-04T10:07:15.150Z,15.35
2017-10-04T10:08:15.462Z,15.21
2017-10-04T10:09:15.491Z,15.13
2017-10-04T10:10:15.107Z,15.09
2017-10-04T10:11:15.395Z,15.12
2017-10-04T10:12:15.380Z,15.07
2017-10-04T10:13:14.742Z,15.04
2017-10-04T10:14:15.041Z,14.94
2017-10-04T10:15:15.322Z,14.87
2017-10-04T10:16:15.303Z,14.94
2017-10-04T10:17:14.982Z,14.96
2017-10-04T10:18:15.282Z,14.94
2017-10-04T10:19:14.620Z,15.12
2017-10-04T10:20:14.920Z,15.07
2017-10-04T10:21:15.225Z,15.06
2017-10-04T10:22:15.195Z,15.03
2017-10-04T10:23:14.877Z,15.12
2017-10-04T10:24:15.172Z,15.07
2017-10-04T10:25:14.830Z,15.22
2017-10-04T10:26:14.830Z,15.1
2017-10-04T10:27:15.122Z,15.16
2017-10-04T10:28:15.096Z,15.03
2017-10-04T10:29:15.111Z,15.16
2017-10-04T10:30:15.042Z,15.2
2017-10-04T10:31:15.069Z,15.21
2017-10-04T10:32:14.701Z,15.21
2017-10-04T10:33:14.374Z,15.25
2017-10-04T10:34:14.674Z,15.29
2017-10-04T10:35:14.703Z,15.17
2017-10-04T10:36:14.946Z,15.12
2017-10-04T10:37:14.612Z,15.13
2017-10-04T10:38:14.279Z,15.16
2017-10-04T10:39:14.644Z,15.07
2017-10-04T10:40:14.561Z,15.14
2017-10-04T10:41:14.542Z,14.98
2017-10-04T10:42:14.535Z,14.95
2017-10-04T10:43:14.529Z,15.09
2017-10-04T10:44:14.795Z,15.1
2017-10-04T10:45:14.523Z,15.31
2017-10-04T10:46:14.448Z,15.31
2017-10-04T10:47:14.753Z,15.06
2017-10-04T10:48:14.408Z,15.12
2017-10-04T10:49:14.401Z,15.12
2017-10-04T10:50:14.424Z,15.13
2017-10-04T10:51:14.373Z,14.73
2017-10-04T10:52:14.661Z,14.94
2017-10-04T10:53:14.324Z,15.13
2017-10-04T10:54:14.634Z,15.22
2017-10-04T10:55:14.306Z,15.31
2017-10-04T10:56:14.581Z,15.37
2017-10-04T10:57:14.568Z,15.46
2017-10-04T10:58:14.612Z,15.54
2017-10-04T10:59:14.233Z,15.42
2017-10-04T11:00:14.572Z,15.44
2017-10-04T11:01:14.543Z,15.57
2017-10-04T11:02:14.572Z,15.71
2017-10-04T11:03:14.142Z,15.75
2017-10-04T11:04:14.525Z,15.86
2017-10-04T11:05:14.424Z,15.86
2017-10-04T11:06:14.427Z,15.71
2017-10-04T11:07:14.392Z,15.89
2017-10-04T11:08:14.390Z,15.94
2017-10-04T11:09:14.377Z,15.79
2017-10-04T11:10:14.024Z,15.98
2017-10-04T11:11:14.337Z,16.01
2017-10-04T11:12:14.322Z,16.02
2017-10-04T11:13:14.321Z,15.9
2017-10-04T11:14:13.961Z,15.68
2017-10-04T11:15:13.960Z,15.54
2017-10-04T11:16:14.235Z,15.67
2017-10-04T11:17:14.221Z,15.58
2017-10-04T11:18:14.206Z,15.69
2017-10-04T11:19:14.240Z,15.77
2017-10-04T11:20:14.159Z,15.76
2017-10-04T11:21:13.826Z,15.87
2017-10-04T11:22:13.808Z,16.02
2017-10-04T11:23:13.805Z,16.17
2017-10-04T11:24:13.777Z,16.41
2017-10-04T11:25:13.764Z,16.24
2017-10-04T11:26:14.045Z,16.23
2017-10-04T11:27:14.061Z,16.15
2017-10-04T11:28:14.083Z,15.75
2017-10-04T11:29:14.004Z,15.86
2017-10-04T11:30:13.985Z,15.6
2017-10-04T11:31:13.983Z,15.69
2017-10-04T11:32:13.650Z,15.92
2017-10-04T11:33:13.941Z,16.17
2017-10-04T11:34:13.939Z,16
2017-10-04T11:35:13.941Z,15.83
2017-10-04T11:36:13.882Z,15.76
2017-10-04T11:37:13.879Z,15.5
2017-10-04T11:38:13.544Z,15.52
2017-10-04T11:39:13.843Z,15.53
2017-10-04T11:40:13.825Z,15.54
2017-10-04T11:41:13.183Z,15.54
2017-10-04T11:42:13.153Z,15.6
2017-10-04T11:43:13.462Z,15.67
2017-10-04T11:44:13.445Z,15.77
2017-10-04T11:45:13.730Z,15.69
2017-10-04T11:46:13.402Z,15.72
2017-10-04T11:47:13.680Z,15.75
2017-10-04T11:48:13.381Z,15.82
2017-10-04T11:49:13.657Z,15.79
2017-10-04T11:50:13.641Z,15.83
2017-10-04T11:51:13.324Z,15.82
2017-10-04T11:52:13.613Z,15.79
2017-10-04T11:53:13.581Z,15.58
2017-10-04T11:54:13.561Z,15.77
2017-10-04T11:55:13.568Z,15.58
2017-10-04T11:56:13.563Z,15.54
2017-10-04T11:57:13.514Z,15.52
2017-10-04T11:58:12.876Z,15.79
2017-10-04T11:59:13.183Z,15.72
2017-10-04T12:00:13.476Z,15.83
2017-10-04T12:01:13.455Z,15.76
2017-10-04T12:02:13.435Z,15.57
2017-10-04T12:03:13.434Z,15.62
2017-10-04T12:04:13.392Z,15.68
2017-10-04T12:05:13.374Z,15.83
2017-10-04T12:06:13.374Z,15.85
2017-10-04T12:07:13.373Z,15.87
2017-10-04T12:08:13.348Z,15.79
2017-10-04T12:09:13.324Z,15.77
2017-10-04T12:10:13.304Z,15.85
2017-10-04T12:11:12.973Z,15.98
2017-10-04T12:12:13.282Z,16.02
2017-10-04T12:13:13.242Z,15.9
2017-10-04T12:14:12.922Z,15.58
2017-10-04T12:15:13.202Z,15.61
2017-10-04T12:16:12.862Z,15.65
2017-10-04T12:17:13.166Z,15.68
2017-10-04T12:18:13.157Z,15.71
2017-10-04T12:19:13.136Z,15.83
2017-10-04T12:20:12.835Z,15.85
2017-10-04T12:21:13.091Z,15.79
2017-10-04T12:22:13.093Z,15.8
2017-10-04T12:23:13.075Z,15.8
2017-10-04T12:24:12.832Z,15.82
2017-10-04T12:25:13.024Z,15.77
2017-10-04T12:26:13.016Z,15.77
2017-10-04T12:27:12.673Z,15.8
2017-10-04T12:28:12.675Z,15.82
2017-10-04T12:29:12.646Z,15.72
2017-10-04T12:30:12.940Z,15.64
2017-10-04T12:31:12.927Z,15.75
2017-10-04T12:32:12.898Z,15.69
2017-10-04T12:33:12.891Z,15.69
2017-10-04T12:34:12.862Z,15.77
2017-10-04T12:35:12.871Z,15.9
2017-10-04T12:36:12.531Z,15.82
2017-10-04T12:37:12.825Z,15.68
2017-10-04T12:38:12.804Z,15.68
2017-10-04T12:39:12.773Z,15.58
2017-10-04T12:40:12.764Z,15.49
2017-10-04T12:41:12.753Z,15.47
2017-10-04T12:42:12.421Z,15.34
2017-10-04T12:43:12.716Z,15.49
2017-10-04T12:44:12.682Z,15.39
2017-10-04T12:45:12.671Z,15.52
2017-10-04T12:46:12.352Z,15.43
2017-10-04T12:47:12.646Z,15.42
2017-10-04T12:48:12.393Z,15.46
2017-10-04T12:49:12.612Z,15.53
2017-10-04T12:50:12.583Z,15.53
2017-10-04T12:51:12.262Z,15.52
2017-10-04T12:52:12.551Z,15.68
2017-10-04T12:53:12.524Z,15.62
2017-10-04T12:54:12.520Z,15.62
2017-10-04T12:55:12.501Z,15.75
2017-10-04T12:56:12.472Z,15.52